createdAt,value
2019-03-11T00:00:33.027Z,91.20
2019-03-11T00:03:01.640Z,91.00
2019-03-11T00:05:32.114Z,90.90
2019-03-11T00:08:00.542Z,91.30
2019-03-11T00:10:29.042Z,91.20
2019-03-11T00:12:57.495Z,91.00
2019-03-11T00:15:26.179Z,90.90
2019-03-11T00:17:54.781Z,90.60
2019-03-11T00:20:23.193Z,90.80
2019-03-11T00:22:51.568Z,90.70
2019-03-11T00:25:19.981Z,90.60
2019-03-11T00:27:48.390Z,90.70
2019-03-11T00:30:16.874Z,90.80
2019-03-11T00:32:45.445Z,90.50
2019-03-11T00:35:13.984Z,90.70
2019-03-11T00:37:42.553Z,90.70
2019-03-11T00:40:15.106Z,90.60
2019-03-11T00:42:43.666Z,90.40
2019-03-11T00:45:14.904Z,90.60
2019-03-11T00:47:43.649Z,90.50
2019-03-11T00:50:12.815Z,90.40
2019-03-11T00:52:44.023Z,90.60
2019-03-11T00:55:13.421Z,90.50
2019-03-11T00:57:42.953Z,90.30
2019-03-11T01:00:28.495Z,90.20
2019-03-11T01:02:56.910Z,90.30
2019-03-11T01:05:25.636Z,90.40
2019-03-11T01:07:54.064Z,90.60
2019-03-11T01:10:22.678Z,90.40
2019-03-11T01:12:51.415Z,90.40
2019-03-11T01:15:19.862Z,90.00
2019-03-11T01:17:50.074Z,90.00
2019-03-11T01:20:18.532Z,90.10
2019-03-11T01:22:47.179Z,90.10
2019-03-11T01:25:15.662Z,89.80
2019-03-11T01:27:44.298Z,90.00
2019-03-11T01:30:17.079Z,89.50
2019-03-11T01:32:45.752Z,89.30
2019-03-11T01:35:14.344Z,89.50
2019-03-11T01:37:42.834Z,89.80
2019-03-11T01:40:13.768Z,89.10
2019-03-11T01:42:43.577Z,89.50
2019-03-11T01:45:14.046Z,90.10
2019-03-11T01:47:42.448Z,89.80
2019-03-11T01:50:12.154Z,89.80
2019-03-11T01:52:40.589Z,89.90
2019-03-11T01:55:11.016Z,90.00
2019-03-11T01:57:39.442Z,90.20
2019-03-11T02:00:11.160Z,89.10
2019-03-11T02:02:39.536Z,89.30
2019-03-11T02:05:08.014Z,89.70
2019-03-11T02:07:39.141Z,89.00
2019-03-11T02:10:10.621Z,89.10
2019-03-11T02:12:38.995Z,89.10
2019-03-11T02:15:10.551Z,89.10
2019-03-11T02:17:40.713Z,88.50
2019-03-11T02:20:12.281Z,88.50
2019-03-11T02:22:40.727Z,88.10
2019-03-11T02:25:09.263Z,87.90
2019-03-11T02:27:37.622Z,88.40
2019-03-11T02:30:17.105Z,88.10
2019-03-11T02:32:45.645Z,88.30
2019-03-11T02:35:14.035Z,88.30
2019-03-11T02:37:42.658Z,88.30
2019-03-11T02:40:14.870Z,88.70
2019-03-11T02:42:43.457Z,89.20
2019-03-11T02:45:11.844Z,89.30
2019-03-11T02:47:40.355Z,89.20
2019-03-11T02:50:10.018Z,88.70
2019-03-11T02:52:38.529Z,88.70
2019-03-11T02:55:07.265Z,88.90
2019-03-11T02:57:36.010Z,89.00
2019-03-11T03:00:18.015Z,89.10
2019-03-11T03:03:04.724Z,89.00
2019-03-11T03:05:34.750Z,88.70
2019-03-11T03:08:03.346Z,89.00
2019-03-11T03:10:34.494Z,89.30
2019-03-11T03:13:02.945Z,89.70
2019-03-11T03:15:31.364Z,90.10
2019-03-11T03:17:59.795Z,90.10
2019-03-11T03:20:28.274Z,90.20
2019-03-11T03:22:56.774Z,90.20
2019-03-11T03:25:33.926Z,90.30
2019-03-11T03:27:55.500Z,90.30
2019-03-11T03:30:24.074Z,90.20
2019-03-11T03:32:52.503Z,90.30
2019-03-11T03:35:21.075Z,90.30
2019-03-11T03:37:49.691Z,90.20
2019-03-11T03:40:18.424Z,90.60
2019-03-11T03:42:47.114Z,90.30
2019-03-11T03:45:29.300Z,90.30
2019-03-11T03:47:58.336Z,90.30
2019-03-11T03:50:32.537Z,90.30
2019-03-11T03:53:01.012Z,90.30
2019-03-11T03:55:29.469Z,90.30
2019-03-11T03:57:57.986Z,90.40
2019-03-11T04:00:26.463Z,90.40
2019-03-11T04:02:54.891Z,90.40
2019-03-11T04:05:23.483Z,90.40
2019-03-11T04:07:51.909Z,90.40
2019-03-11T04:10:20.877Z,90.40
2019-03-11T04:12:49.204Z,90.30
2019-03-11T04:15:17.985Z,90.40
2019-03-11T04:17:46.347Z,90.40
2019-03-11T04:20:20.771Z,90.40
2019-03-11T04:22:49.154Z,90.40
2019-03-11T04:25:17.912Z,90.40
2019-03-11T04:27:46.388Z,90.60
2019-03-11T04:30:22.306Z,90.60
2019-03-11T04:32:50.862Z,90.40
2019-03-11T04:35:19.409Z,90.40
2019-03-11T04:37:47.865Z,90.40
2019-03-11T04:40:16.681Z,90.40
2019-03-11T04:42:45.151Z,90.40
2019-03-11T04:45:14.698Z,90.40
2019-03-11T04:47:43.299Z,90.30
2019-03-11T04:50:19.794Z,90.40
2019-03-11T04:52:48.366Z,90.30
2019-03-11T04:55:17.108Z,90.40
2019-03-11T04:57:51.187Z,90.80
2019-03-11T05:00:24.608Z,90.40
2019-03-11T05:02:53.007Z,90.30
2019-03-11T05:05:21.543Z,90.30
2019-03-11T05:07:50.025Z,90.30
2019-03-11T05:10:18.376Z,90.40
2019-03-11T05:12:46.783Z,90.30
2019-03-11T05:15:15.256Z,90.20
2019-03-11T05:17:43.714Z,90.10
2019-03-11T05:20:15.580Z,90.00
2019-03-11T05:22:44.104Z,90.00
2019-03-11T05:25:13.795Z,90.00
2019-03-11T05:27:42.281Z,89.60
2019-03-11T05:30:16.614Z,89.70
2019-03-11T05:32:45.205Z,89.80
2019-03-11T05:35:13.767Z,89.80
2019-03-11T05:37:42.086Z,89.70
2019-03-11T05:40:18.299Z,89.70
2019-03-11T05:42:47.094Z,89.00
2019-03-11T05:45:17.746Z,89.10
2019-03-11T05:47:47.326Z,89.30
2019-03-11T05:50:16.836Z,88.90
2019-03-11T05:52:45.646Z,88.90
2019-03-11T05:55:14.083Z,88.90
2019-03-11T05:57:42.874Z,88.90
2019-03-11T06:00:17.520Z,88.50
2019-03-11T06:02:46.284Z,88.30
2019-03-11T06:05:14.780Z,88.00
2019-03-11T06:07:43.143Z,87.70
2019-03-11T06:10:13.338Z,87.30
2019-03-11T06:12:41.845Z,87.30
2019-03-11T06:15:14.871Z,87.00
2019-03-11T06:17:43.449Z,86.70
2019-03-11T06:20:30.226Z,86.90
2019-03-11T06:22:59.676Z,86.60
2019-03-11T06:25:28.113Z,86.50
2019-03-11T06:27:56.746Z,86.30
2019-03-11T06:30:25.318Z,86.10
2019-03-11T06:32:53.937Z,86.30
2019-03-11T06:35:22.308Z,86.10
2019-03-11T06:37:50.927Z,86.20
2019-03-11T06:40:19.329Z,85.40
2019-03-11T06:42:47.854Z,85.50
2019-03-11T06:45:16.439Z,85.40
2019-03-11T06:47:45.048Z,85.20
2019-03-11T06:50:14.539Z,85.40
2019-03-11T06:52:42.992Z,85.30
2019-03-11T06:55:12.191Z,85.50
2019-03-11T06:57:41.054Z,85.30
2019-03-11T07:00:12.894Z,84.80
2019-03-11T07:02:41.418Z,84.40
2019-03-11T07:05:19.112Z,83.70
2019-03-11T07:07:41.838Z,83.90
2019-03-11T07:10:14.592Z,84.40
2019-03-11T07:12:43.023Z,84.20
2019-03-11T07:15:13.706Z,83.90
2019-03-11T07:17:44.681Z,83.90
2019-03-11T07:20:15.639Z,84.20
2019-03-11T07:22:44.098Z,84.30
2019-03-11T07:25:12.520Z,84.20
2019-03-11T07:27:41.120Z,84.20
2019-03-11T07:30:17.675Z,83.90
2019-03-11T07:32:46.138Z,83.90
2019-03-11T07:35:15.093Z,84.40
2019-03-11T07:37:43.590Z,83.90
2019-03-11T07:40:16.107Z,84.10
2019-03-11T07:42:44.655Z,84.30
2019-03-11T07:45:14.531Z,83.10
2019-03-11T07:47:43.180Z,83.00
2019-03-11T07:50:12.525Z,84.10
2019-03-11T07:52:40.974Z,83.30
2019-03-11T07:55:13.344Z,84.10
2019-03-11T07:57:41.817Z,83.00
2019-03-11T08:00:18.076Z,83.20
2019-03-11T08:02:46.575Z,83.50
2019-03-11T08:05:15.080Z,82.60
2019-03-11T08:07:43.644Z,80.60
2019-03-11T08:10:24.291Z,81.30
2019-03-11T08:12:52.671Z,81.20
2019-03-11T08:15:21.707Z,80.60
2019-03-11T08:17:50.580Z,80.90
2019-03-11T08:20:19.005Z,80.20
2019-03-11T08:22:47.555Z,80.50
2019-03-11T08:25:16.942Z,80.80
2019-03-11T08:27:45.602Z,79.70
2019-03-11T08:30:23.068Z,80.20
2019-03-11T08:32:51.656Z,80.00
2019-03-11T08:35:20.033Z,79.20
2019-03-11T08:37:48.452Z,79.50
2019-03-11T08:40:19.178Z,79.40
2019-03-11T08:42:47.600Z,79.50
2019-03-11T08:45:17.134Z,79.60
2019-03-11T08:47:45.659Z,78.90
2019-03-11T08:50:16.057Z,79.00
2019-03-11T08:52:44.511Z,79.00
2019-03-11T08:55:13.161Z,79.80
2019-03-11T08:57:41.672Z,77.60
2019-03-11T09:00:20.453Z,77.70
2019-03-11T09:02:48.880Z,78.50
2019-03-11T09:05:17.533Z,77.50
2019-03-11T09:07:45.964Z,77.20
2019-03-11T09:10:16.681Z,77.70
2019-03-11T09:12:47.467Z,77.20
2019-03-11T09:15:17.207Z,76.90
2019-03-11T09:17:47.616Z,76.20
2019-03-11T09:20:21.782Z,76.70
2019-03-11T09:22:50.230Z,76.80
2019-03-11T09:25:21.901Z,75.90
2019-03-11T09:27:51.075Z,76.10
2019-03-11T09:30:20.792Z,76.40
2019-03-11T09:32:49.245Z,76.40
2019-03-11T09:35:37.578Z,76.00
2019-03-11T09:38:05.959Z,76.30
2019-03-11T09:40:34.435Z,75.90
2019-03-11T09:43:02.816Z,75.30
2019-03-11T09:45:31.329Z,75.50
2019-03-11T09:47:59.757Z,75.60
2019-03-11T09:50:28.314Z,75.80
2019-03-11T09:52:56.685Z,76.40
2019-03-11T09:55:28.804Z,75.80
2019-03-11T09:57:57.211Z,75.50
2019-03-11T10:00:32.989Z,75.60
2019-03-11T10:03:01.284Z,75.30
2019-03-11T10:05:29.747Z,73.60
2019-03-11T10:07:58.278Z,73.80
2019-03-11T10:10:30.182Z,73.40
2019-03-11T10:12:58.562Z,73.00
2019-03-11T10:15:27.011Z,73.10
2019-03-11T10:17:55.630Z,72.20
2019-03-11T10:20:24.104Z,72.70
2019-03-11T10:22:52.403Z,72.00
2019-03-11T10:25:21.238Z,71.70
2019-03-11T10:27:49.544Z,71.60
2019-03-11T10:30:20.147Z,72.00
2019-03-11T10:32:48.481Z,72.20
2019-03-11T10:35:31.992Z,72.00
2019-03-11T10:37:50.709Z,73.00
2019-03-11T10:40:24.208Z,72.90
2019-03-11T10:42:52.589Z,73.70
2019-03-11T10:45:30.228Z,75.20
2019-03-11T10:47:51.027Z,75.40
2019-03-11T10:50:20.034Z,76.20
2019-03-11T10:52:48.556Z,77.20
2019-03-11T10:55:21.286Z,77.20
2019-03-11T10:57:49.683Z,76.60
2019-03-11T11:00:30.520Z,75.40
2019-03-11T11:02:59.064Z,75.80
2019-03-11T11:05:27.550Z,76.10
2019-03-11T11:07:56.239Z,74.30
2019-03-11T11:10:24.634Z,74.50
2019-03-11T11:12:53.144Z,75.50
2019-03-11T11:15:36.171Z,74.20
2019-03-11T11:18:04.646Z,75.60
2019-03-11T11:20:33.093Z,72.50
2019-03-11T11:23:01.711Z,72.10
2019-03-11T11:25:31.218Z,71.60
2019-03-11T11:27:59.654Z,70.80
2019-03-11T11:30:29.085Z,70.90
2019-03-11T11:32:57.519Z,71.40
2019-03-11T11:35:25.983Z,72.90
2019-03-11T11:37:54.358Z,74.20
2019-03-11T11:40:24.181Z,75.80
2019-03-11T11:42:52.704Z,76.30
2019-03-11T11:45:22.404Z,76.50
2019-03-11T11:47:50.918Z,77.20
2019-03-11T11:50:23.462Z,77.60
2019-03-11T11:52:52.011Z,78.50
2019-03-11T11:55:21.625Z,79.50
2019-03-11T11:57:50.063Z,79.80
2019-03-11T12:00:27.391Z,80.20
2019-03-11T12:02:56.035Z,82.40
2019-03-11T12:05:33.313Z,83.50
2019-03-11T12:08:01.733Z,83.90
2019-03-11T12:10:32.377Z,84.10
2019-03-11T12:13:00.856Z,85.00
2019-03-11T12:15:29.296Z,85.60
2019-03-11T12:17:57.662Z,85.60
2019-03-11T12:20:30.706Z,85.80
2019-03-11T12:22:59.179Z,84.90
2019-03-11T12:25:27.689Z,85.20
2019-03-11T12:27:58.234Z,84.80
2019-03-11T12:30:32.946Z,85.40
2019-03-11T12:33:01.436Z,85.60
2019-03-11T12:35:29.967Z,86.10
2019-03-11T12:37:58.371Z,86.00
2019-03-11T12:40:26.805Z,85.10
2019-03-11T12:42:55.283Z,85.20
2019-03-11T12:45:24.743Z,85.10
2019-03-11T12:47:53.244Z,84.50
2019-03-11T12:50:29.480Z,85.10
2019-03-11T12:52:57.950Z,84.70
2019-03-11T12:55:26.419Z,85.10
2019-03-11T12:57:54.935Z,84.70
2019-03-11T13:00:25.478Z,84.90
2019-03-11T13:02:53.878Z,84.80
2019-03-11T13:05:22.325Z,84.50
2019-03-11T13:07:50.923Z,84.00
2019-03-11T13:10:22.565Z,83.10
2019-03-11T13:12:50.978Z,83.10
2019-03-11T13:15:19.459Z,83.30
2019-03-11T13:17:48.043Z,82.90
2019-03-11T13:20:25.283Z,82.50
2019-03-11T13:22:53.735Z,81.40
2019-03-11T13:25:22.216Z,81.50
2019-03-11T13:27:50.912Z,81.30
2019-03-11T13:30:19.417Z,81.40
2019-03-11T13:32:47.821Z,81.40
2019-03-11T13:35:18.735Z,80.30
2019-03-11T13:37:47.186Z,79.10
2019-03-11T13:40:16.151Z,80.40
2019-03-11T13:42:44.725Z,79.70
2019-03-11T13:45:19.665Z,78.90
2019-03-11T13:47:47.912Z,79.10
2019-03-11T13:50:19.363Z,78.30
2019-03-11T13:52:49.689Z,78.30
2019-03-11T13:55:17.664Z,77.60
2019-03-11T13:57:46.200Z,76.70
2019-03-11T14:00:19.951Z,77.00
2019-03-11T14:02:48.486Z,76.00
2019-03-11T14:05:17.042Z,75.50
2019-03-11T14:07:45.519Z,75.30
2019-03-11T14:10:15.062Z,75.30
2019-03-11T14:12:43.623Z,75.50
2019-03-11T14:15:20.133Z,75.50
2019-03-11T14:17:48.689Z,75.60
2019-03-11T14:20:17.095Z,74.50
2019-03-11T14:22:45.543Z,74.50
2019-03-11T14:25:14.620Z,74.20
2019-03-11T14:27:43.039Z,75.10
2019-03-11T14:30:16.654Z,75.40
2019-03-11T14:32:45.082Z,76.20
2019-03-11T14:35:13.829Z,76.40
2019-03-11T14:37:42.271Z,75.90
2019-03-11T14:40:17.854Z,76.10
2019-03-11T14:42:46.267Z,75.90
2019-03-11T14:45:18.773Z,73.20
2019-03-11T14:47:47.202Z,73.10
2019-03-11T14:50:16.145Z,72.90
2019-03-11T14:52:44.603Z,72.20
2019-03-11T14:55:14.682Z,72.70
2019-03-11T14:57:43.306Z,71.60
2019-03-11T15:00:20.795Z,70.30
2019-03-11T15:02:49.173Z,68.60
2019-03-11T15:05:18.500Z,66.80
2019-03-11T15:07:47.359Z,66.00
2019-03-11T15:10:18.145Z,64.40
2019-03-11T15:12:46.593Z,63.50
2019-03-11T15:15:20.270Z,63.20
2019-03-11T15:17:48.748Z,60.00
2019-03-11T15:20:17.392Z,59.70
2019-03-11T15:22:45.832Z,60.20
2019-03-11T15:25:16.595Z,59.80
2019-03-11T15:27:44.978Z,59.60
2019-03-11T15:30:16.125Z,60.00
2019-03-11T15:32:44.545Z,61.30
2019-03-11T15:35:13.055Z,61.50
2019-03-11T15:37:41.450Z,61.20
2019-03-11T15:40:15.601Z,63.20
2019-03-11T15:42:44.093Z,64.00
2019-03-11T15:45:19.462Z,64.40
2019-03-11T15:47:48.069Z,63.80
2019-03-11T15:50:19.332Z,63.70
2019-03-11T15:52:47.845Z,62.10
2019-03-11T15:55:17.294Z,63.50
2019-03-11T15:57:45.779Z,63.00
2019-03-11T16:00:22.079Z,63.70
2019-03-11T16:02:50.549Z,63.10
2019-03-11T16:05:23.158Z,64.00
2019-03-11T16:07:51.687Z,65.20
2019-03-11T16:10:20.086Z,65.30
2019-03-11T16:12:48.539Z,66.50
2019-03-11T16:15:17.357Z,66.20
2019-03-11T16:17:45.733Z,66.50
2019-03-11T16:20:21.774Z,66.70
2019-03-11T16:22:50.219Z,67.00
2019-03-11T16:25:18.637Z,67.80
2019-03-11T16:27:46.974Z,68.10
2019-03-11T16:30:22.674Z,68.40
2019-03-11T16:33:00.560Z,68.70
2019-03-11T16:35:22.656Z,69.00
2019-03-11T16:37:51.105Z,69.40
2019-03-11T16:40:21.011Z,69.40
2019-03-11T16:42:49.385Z,69.50
2019-03-11T16:45:19.225Z,70.40
2019-03-11T16:47:48.291Z,70.80
2019-03-11T16:50:20.924Z,71.00
2019-03-11T16:52:49.300Z,71.20
2019-03-11T16:55:20.787Z,71.00
2019-03-11T16:57:49.187Z,71.40
2019-03-11T17:00:31.025Z,71.40
2019-03-11T17:02:59.472Z,71.70
2019-03-11T17:05:28.199Z,71.40
2019-03-11T17:07:56.612Z,71.30
2019-03-11T17:10:25.205Z,71.50
2019-03-11T17:12:53.587Z,71.60
2019-03-11T17:15:22.100Z,71.80
2019-03-11T17:17:54.832Z,71.80
2019-03-11T17:20:23.225Z,71.80
2019-03-11T17:22:51.604Z,71.90
2019-03-11T17:25:20.089Z,72.00
2019-03-11T17:27:48.566Z,72.30
2019-03-11T17:30:21.885Z,72.40
2019-03-11T17:32:50.325Z,72.50
2019-03-11T17:35:18.816Z,72.60
2019-03-11T17:37:47.113Z,72.70
2019-03-11T17:40:19.383Z,72.80
2019-03-11T17:42:47.896Z,72.90
2019-03-11T17:45:16.555Z,73.10
2019-03-11T17:47:44.953Z,73.20
2019-03-11T17:50:18.594Z,73.30
2019-03-11T17:52:47.113Z,73.30
2019-03-11T17:55:16.485Z,73.40
2019-03-11T17:57:44.954Z,73.10
2019-03-11T18:00:18.097Z,73.30
2019-03-11T18:02:46.444Z,73.40
2019-03-11T18:05:15.323Z,73.70
2019-03-11T18:07:43.815Z,74.10
2019-03-11T18:10:12.161Z,74.30
2019-03-11T18:12:40.549Z,75.50
2019-03-11T18:15:12.786Z,75.40
2019-03-11T18:17:40.571Z,76.00
2019-03-11T18:20:14.881Z,75.70
2019-03-11T18:22:43.328Z,76.50
2019-03-11T18:25:18.971Z,76.80
2019-03-11T18:27:47.347Z,76.70
2019-03-11T18:30:23.723Z,77.20
2019-03-11T18:32:54.993Z,77.50
2019-03-11T18:35:23.349Z,77.80
2019-03-11T18:38:02.883Z,77.80
2019-03-11T18:40:22.012Z,78.30
2019-03-11T18:42:50.406Z,78.80
2019-03-11T18:45:18.812Z,79.40
2019-03-11T18:47:47.244Z,80.30
2019-03-11T18:50:21.433Z,80.60
2019-03-11T18:52:49.890Z,82.30
2019-03-11T18:55:18.392Z,83.20
2019-03-11T18:57:46.738Z,83.00
2019-03-11T19:00:18.473Z,84.30
2019-03-11T19:02:47.156Z,85.30
2019-03-11T19:05:22.814Z,84.90
2019-03-11T19:07:51.254Z,85.40
2019-03-11T19:10:19.590Z,86.10
2019-03-11T19:12:47.997Z,86.70
2019-03-11T19:15:21.427Z,86.80
2019-03-11T19:17:49.904Z,86.90
2019-03-11T19:20:21.059Z,87.20
2019-03-11T19:22:49.501Z,87.70
2019-03-11T19:25:18.036Z,86.80
2019-03-11T19:27:46.419Z,87.10
2019-03-11T19:30:17.324Z,87.00
2019-03-11T19:32:45.906Z,86.90
2019-03-11T19:35:14.643Z,86.80
2019-03-11T19:37:43.095Z,86.80
2019-03-11T19:40:16.731Z,86.90
2019-03-11T19:42:45.100Z,87.20
2019-03-11T19:45:14.885Z,87.00
2019-03-11T19:47:43.390Z,87.30
2019-03-11T19:50:15.914Z,87.50
2019-03-11T19:52:56.967Z,87.60
2019-03-11T19:55:14.430Z,87.70
2019-03-11T19:57:42.929Z,87.90
2019-03-11T20:00:24.902Z,87.90
2019-03-11T20:02:53.308Z,88.20
2019-03-11T20:05:30.831Z,88.40
2019-03-11T20:07:59.261Z,88.40
2019-03-11T20:10:27.867Z,88.50
2019-03-11T20:12:56.328Z,88.70
2019-03-11T20:15:24.686Z,88.60
2019-03-11T20:17:53.116Z,88.50
2019-03-11T20:20:21.584Z,88.40
2019-03-11T20:22:50.903Z,88.30
2019-03-11T20:25:31.434Z,88.20
2019-03-11T20:27:59.822Z,88.10
2019-03-11T20:30:28.225Z,88.00
2019-03-11T20:32:56.777Z,88.10
2019-03-11T20:35:25.271Z,88.00
2019-03-11T20:37:53.857Z,88.20
2019-03-11T20:40:22.206Z,88.20
2019-03-11T20:42:50.760Z,88.40
2019-03-11T20:45:20.215Z,88.50
2019-03-11T20:47:48.660Z,88.60
2019-03-11T20:50:17.941Z,88.70
2019-03-11T20:52:46.441Z,88.70
2019-03-11T20:55:16.098Z,88.50
2019-03-11T20:57:44.612Z,88.40
2019-03-11T21:00:15.760Z,88.30
2019-03-11T21:02:44.277Z,88.40
2019-03-11T21:05:15.180Z,88.40
2019-03-11T21:07:43.640Z,88.20
2019-03-11T21:10:14.015Z,88.30
2019-03-11T21:12:42.599Z,88.50
2019-03-11T21:15:13.468Z,88.40
2019-03-11T21:17:41.914Z,88.70
2019-03-11T21:20:15.670Z,88.70
2019-03-11T21:22:44.171Z,88.90
2019-03-11T21:25:14.771Z,88.80
2019-03-11T21:27:43.301Z,89.00
2019-03-11T21:30:16.688Z,89.10
2019-03-11T21:32:45.182Z,89.10
2019-03-11T21:35:13.735Z,89.10
2019-03-11T21:37:42.220Z,89.00
2019-03-11T21:40:18.643Z,89.30
2019-03-11T21:42:47.097Z,89.30
2019-03-11T21:45:17.584Z,89.30
2019-03-11T21:47:46.082Z,89.40
2019-03-11T21:50:22.287Z,89.60
2019-03-11T21:52:50.757Z,89.70
2019-03-11T21:55:19.203Z,89.80
2019-03-11T21:57:47.575Z,89.90
2019-03-11T22:00:33.609Z,90.00
2019-03-11T22:02:55.006Z,90.00
2019-03-11T22:05:23.399Z,89.90
2019-03-11T22:07:51.766Z,90.00
2019-03-11T22:10:20.687Z,90.00
2019-03-11T22:12:49.193Z,90.00
2019-03-11T22:15:23.239Z,90.10
2019-03-11T22:17:51.753Z,90.10
2019-03-11T22:20:20.246Z,90.20
2019-03-11T22:22:48.995Z,90.20
2019-03-11T22:25:19.087Z,90.10
2019-03-11T22:27:47.569Z,90.10
2019-03-11T22:30:18.612Z,90.10
2019-03-11T22:32:47.282Z,90.10
2019-03-11T22:35:15.900Z,90.10
2019-03-11T22:37:44.696Z,90.00
2019-03-11T22:40:16.901Z,90.00
2019-03-11T22:42:45.342Z,90.00
2019-03-11T22:45:22.243Z,89.70
2019-03-11T22:47:51.142Z,89.60
2019-03-11T22:50:21.091Z,89.50
2019-03-11T22:52:49.723Z,89.50
2019-03-11T22:55:18.705Z,90.10
2019-03-11T22:57:47.185Z,89.50
2019-03-11T23:00:56.095Z,89.50
2019-03-11T23:03:25.117Z,89.50
2019-03-11T23:05:58.155Z,90.00
2019-03-11T23:08:23.712Z,90.00
2019-03-11T23:10:52.235Z,90.00
2019-03-11T23:13:20.561Z,90.00
2019-03-11T23:15:50.696Z,90.00
2019-03-11T23:18:19.222Z,90.00
2019-03-11T23:20:47.839Z,89.90
2019-03-11T23:23:16.654Z,90.00
2019-03-11T23:25:45.093Z,89.90
2019-03-11T23:28:13.573Z,89.70
2019-03-11T23:30:42.243Z,89.60
2019-03-11T23:33:10.824Z,89.60
2019-03-11T23:35:39.409Z,89.60
2019-03-11T23:38:07.915Z,89.50
2019-03-11T23:40:39.899Z,89.60
2019-03-11T23:43:08.453Z,89.50
2019-03-11T23:45:37.108Z,89.50
2019-03-11T23:48:05.513Z,89.40
2019-03-11T23:50:33.925Z,89.40
2019-03-11T23:53:02.424Z,89.50
2019-03-11T23:55:30.904Z,89.80
2019-03-11T23:57:59.371Z,90.30
